Airfield :
LOGIN :

Register | Disclaimer

   EN    FR    IT 

 










Legend :    VFR   Marginal VFR   IFR   Intensive IFR   Very Intensive IFR
Visi :
Ceiling :
>= 8 km
>= 3000ft
5 to 8 km
1000 to 3000 ft
1500m to 5 km
500 to 1000 ft
800 to 1500m
200 to 500 ft
< 800m
< 200 ft
Symbols :   Thunderstorms  Fog  Heavy snow  Heavy precipitations  Wind > 20 kt
SIGMETs :     Misc.  Thunderstorms  Icing  Turbulence  Mountain Waves  Volcanic Ashes






- Airport Elevation : 33 ft
- IATA code : MHZ


EGUN - RAF Mildenhall

CURRENT METAR :
  • 192156Z AUTO 13005KT 9999 CLR 07/06 A3009 RMK AO2 SLP193 T00740060 FZRANO $

EXPIRED METARs :
  • 192056Z AUTO 11003KT 9999 CLR 08/06 A3010 RMK AO2 SLP196 T00760062 51009 FZRANO $
  • 191956Z AUTO 13006KT 9999 CLR 09/06 A3010 RMK AO2 SLP196 T00930064 FZRANO $

TAF TAF EGUN
Valid from the 19 at 20:00 until the 21 at 02:00 UTC


192000Z 1920/2102 01009KT 9999 SCT030 QNH3010INS
BECMG 1923/1924 12009KT 5000 BR BKN007 QNH3008INS
BECMG 2002/2003 VRB03KT 0400 FG OVC004 QNH3007INS
BECMG 2008/2009 VRB03KT 5000 BR SCT010 QNH3006INS
BECMG 2009/2010 02009KT 9999 NSW SCT040 QNH3002INS TX15/2014Z TN02/2004Z



MET'MAP, your aeronautical weather chart ! - Copyright ORBIFLY December 2007 - Disclaimer

ORBIFLY MET'MAP TEAM :

Programming & Development : Alexandra Zaïnal
Concept & original design : Baudouin d'Aumeries
Assistance for programming : Marc-Olivier Méhu
Technical & hardware support : Manuel Goepfert

Contact : metmap@orbifly.com




SOURCES & CREDITS :

   NOAA